createdAt,value
2022-10-23T00:02:08.405Z,99309.52
2022-10-23T00:04:37.643Z,99309.50
2022-10-23T00:07:08.803Z,99312.33
2022-10-23T00:09:37.815Z,99313.75
2022-10-23T00:12:07.949Z,99317.83
2022-10-23T00:14:36.970Z,99318.75
2022-10-23T00:17:10.991Z,99316.30
2022-10-23T00:19:40.343Z,99313.88
2022-10-23T00:22:09.159Z,99314.78
2022-10-23T00:24:38.073Z,99318.36
2022-10-23T00:27:06.988Z,99319.65
2022-10-23T00:29:36.955Z,99318.89
2022-10-23T00:32:08.179Z,99318.63
2022-10-23T00:34:36.868Z,99321.55
2022-10-23T00:37:06.056Z,99325.20
2022-10-23T00:39:37.205Z,99327.81
2022-10-23T00:42:07.270Z,99326.60
2022-10-23T00:44:44.783Z,99327.20
2022-10-23T00:47:15.078Z,99328.41
2022-10-23T00:49:43.685Z,99329.27
2022-10-23T00:52:14.290Z,99333.91
2022-10-23T00:54:44.350Z,99331.05
2022-10-23T00:57:16.468Z,99331.84
2022-10-23T00:59:45.511Z,99333.15
2022-10-23T01:02:16.455Z,99337.05
2022-10-23T01:04:45.406Z,99339.05
2022-10-23T01:07:28.983Z,99339.46
2022-10-23T01:10:03.301Z,99341.26
2022-10-23T01:12:47.224Z,99342.42
2022-10-23T01:15:26.852Z,99343.20
2022-10-23T01:17:58.005Z,99345.91
2022-10-23T01:20:42.179Z,99349.17
2022-10-23T01:23:24.154Z,99349.36
2022-10-23T01:26:19.890Z,99354.17
2022-10-23T01:29:11.782Z,99354.39
2022-10-23T01:31:49.892Z,99357.94
2022-10-23T01:34:33.034Z,99359.89
2022-10-23T01:37:05.497Z,99365.65
2022-10-23T01:39:41.943Z,99364.02
2022-10-23T01:42:16.030Z,99358.27
2022-10-23T01:44:50.226Z,99357.50
2022-10-23T01:47:25.763Z,99363.09
2022-10-23T01:50:17.255Z,99366.44
2022-10-23T01:52:48.229Z,99368.84
2022-10-23T01:55:18.513Z,99369.17
2022-10-23T01:57:49.091Z,99368.23
2022-10-23T02:00:20.281Z,99365.88
2022-10-23T02:02:56.251Z,99366.47
2022-10-23T02:05:31.544Z,99365.27
2022-10-23T02:08:01.588Z,99367.72
2022-10-23T02:11:02.100Z,99368.91
2022-10-23T02:13:47.823Z,99366.85
2022-10-23T02:17:12.010Z,99364.48
2022-10-23T02:20:03.003Z,99362.11
2022-10-23T02:22:43.738Z,99359.93
2022-10-23T02:25:23.557Z,99358.52
2022-10-23T02:27:56.702Z,99353.92
2022-10-23T02:30:30.534Z,99352.54
2022-10-23T02:33:11.436Z,99352.69
2022-10-23T02:35:40.756Z,99356.20
2022-10-23T02:38:31.005Z,99356.25
2022-10-23T02:41:44.458Z,99353.99
2022-10-23T02:44:41.005Z,99357.89
2022-10-23T02:47:27.941Z,99358.17
2022-10-23T02:50:10.497Z,99357.02
2022-10-23T02:52:56.008Z,99359.38
2022-10-23T02:55:34.556Z,99355.90
2022-10-23T02:58:10.800Z,99358.09
2022-10-23T03:00:51.181Z,99359.67
2022-10-23T03:03:28.001Z,99362.52
2022-10-23T03:05:58.771Z,99363.45
2022-10-23T03:08:27.536Z,99364.36
2022-10-23T03:10:56.705Z,99367.59
2022-10-23T03:13:27.027Z,99366.39
2022-10-23T03:15:58.180Z,99367.83
2022-10-23T03:18:32.620Z,99367.64
2022-10-23T03:21:03.289Z,99366.64
2022-10-23T03:23:36.853Z,99369.98
2022-10-23T03:26:06.764Z,99367.88
2022-10-23T03:28:40.765Z,99362.49
2022-10-23T03:31:10.161Z,99363.90
2022-10-23T03:33:40.864Z,99362.36
2022-10-23T03:36:11.845Z,99359.94
2022-10-23T03:38:42.064Z,99356.95
2022-10-23T03:41:12.227Z,99353.27
2022-10-23T03:43:41.223Z,99353.45
2022-10-23T03:46:13.382Z,99352.38
2022-10-23T03:48:42.815Z,99352.92
2022-10-23T03:51:11.912Z,99351.38
2022-10-23T03:53:42.651Z,99352.98
2022-10-23T03:56:11.861Z,99350.02
2022-10-23T03:58:41.659Z,99342.45
2022-10-23T04:01:10.300Z,99342.44
2022-10-23T04:03:39.416Z,99340.98
2022-10-23T04:06:09.100Z,99341.66
2022-10-23T04:08:38.972Z,99337.77
2022-10-23T04:11:15.101Z,99335.30
2022-10-23T04:13:47.344Z,99333.89
2022-10-23T04:16:17.724Z,99335.77
2022-10-23T04:18:47.382Z,99338.07
2022-10-23T04:21:16.126Z,99337.90
2022-10-23T04:23:45.821Z,99340.39
2022-10-23T04:26:18.448Z,99343.77
2022-10-23T04:28:47.649Z,99346.60
2022-10-23T04:31:18.753Z,99347.86
2022-10-23T04:33:49.605Z,99353.00
2022-10-23T04:36:48.292Z,99351.95
2022-10-23T04:39:19.391Z,99349.31
2022-10-23T04:41:52.008Z,99353.16
2022-10-23T04:44:24.279Z,99351.95
2022-10-23T04:46:53.741Z,99354.29
2022-10-23T04:49:25.284Z,99356.71
2022-10-23T04:52:19.672Z,99358.28
2022-10-23T04:55:11.747Z,99357.10
2022-10-23T04:57:47.637Z,99353.41
2022-10-23T05:00:18.948Z,99353.04
2022-10-23T05:02:54.677Z,99356.52
2022-10-23T05:05:23.883Z,99358.42
2022-10-23T05:08:14.226Z,99361.52
2022-10-23T05:11:13.858Z,99367.27
2022-10-23T05:13:47.257Z,99372.80
2022-10-23T05:16:47.321Z,99376.40
2022-10-23T05:19:24.294Z,99371.23
2022-10-23T05:21:56.482Z,99366.19
2022-10-23T05:24:39.318Z,99365.33
2022-10-23T05:27:08.318Z,99358.12
2022-10-23T05:29:40.701Z,99356.19
2022-10-23T05:32:12.862Z,99351.77
2022-10-23T05:34:43.669Z,99350.77
2022-10-23T05:37:16.326Z,99354.89
2022-10-23T05:39:47.288Z,99354.08
2022-10-23T05:42:18.433Z,99349.95
2022-10-23T05:44:48.211Z,99351.27
2022-10-23T05:47:26.016Z,99357.81
2022-10-23T05:50:18.533Z,99365.94
2022-10-23T05:52:49.054Z,99369.83
2022-10-23T05:55:39.483Z,99369.83
2022-10-23T05:58:38.873Z,99360.95
2022-10-23T06:01:18.828Z,99358.71
2022-10-23T06:04:08.010Z,99364.42
2022-10-23T06:06:57.457Z,99369.09
2022-10-23T06:09:27.187Z,99371.98
2022-10-23T06:12:03.420Z,99373.54
2022-10-23T06:14:33.760Z,99373.96
2022-10-23T06:17:04.134Z,99376.03
2022-10-23T06:19:40.322Z,99375.29
2022-10-23T06:22:16.178Z,99378.38
2022-10-23T06:24:54.871Z,99381.83
2022-10-23T06:27:27.519Z,99379.77
2022-10-23T06:29:57.112Z,99387.16
2022-10-23T06:32:27.175Z,99389.98
2022-10-23T06:35:08.460Z,99387.05
2022-10-23T06:37:37.810Z,99386.71
2022-10-23T06:40:34.519Z,99388.39
2022-10-23T06:43:13.299Z,99393.94
2022-10-23T06:46:05.204Z,99389.42
2022-10-23T06:48:54.769Z,99381.98
2022-10-23T06:51:30.285Z,99382.30
2022-10-23T06:54:02.321Z,99380.13
2022-10-23T06:57:07.848Z,99379.08
2022-10-23T06:59:43.177Z,99378.03
2022-10-23T07:02:12.515Z,99379.02
2022-10-23T07:04:42.300Z,99379.59
2022-10-23T07:07:16.247Z,99382.77
2022-10-23T07:09:50.798Z,99383.52
2022-10-23T07:12:28.445Z,99386.84
2022-10-23T07:15:27.417Z,99385.77
2022-10-23T07:17:58.986Z,99383.83
2022-10-23T07:20:30.899Z,99384.09
2022-10-23T07:22:59.703Z,99388.40
2022-10-23T07:25:34.354Z,99391.84
2022-10-23T07:28:05.151Z,99392.17
2022-10-23T07:30:33.889Z,99387.13
2022-10-23T07:33:03.183Z,99381.10
2022-10-23T07:35:41.314Z,99380.73
2022-10-23T07:38:16.631Z,99382.71
2022-10-23T07:40:48.683Z,99384.55
2022-10-23T07:43:21.201Z,99389.51
2022-10-23T07:45:51.456Z,99395.52
2022-10-23T07:48:27.946Z,99395.70
2022-10-23T07:51:10.970Z,99391.42
2022-10-23T07:53:51.756Z,99393.10
2022-10-23T07:56:47.356Z,99391.35
2022-10-23T07:59:17.008Z,99390.32
2022-10-23T08:01:55.081Z,99393.54
2022-10-23T08:04:26.701Z,99397.09
2022-10-23T08:07:01.506Z,99402.48
2022-10-23T08:09:34.861Z,99398.03
2022-10-23T08:12:07.043Z,99395.49
2022-10-23T08:14:38.222Z,99398.92
2022-10-23T08:17:10.222Z,99398.67
2022-10-23T08:20:00.933Z,99400.79
2022-10-23T08:22:35.926Z,99400.70
2022-10-23T08:25:06.698Z,99397.69
2022-10-23T08:27:36.938Z,99393.25
2022-10-23T08:30:08.679Z,99393.30
2022-10-23T08:32:39.444Z,99390.55
2022-10-23T08:35:08.863Z,99392.20
2022-10-23T08:37:38.293Z,99390.58
2022-10-23T08:40:25.807Z,99388.65
2022-10-23T08:43:40.625Z,99398.27
2022-10-23T08:46:40.417Z,99401.67
2022-10-23T08:49:50.982Z,99398.65
2022-10-23T08:52:32.393Z,99397.42
2022-10-23T08:55:19.294Z,99404.98
2022-10-23T08:58:20.348Z,99405.14
2022-10-23T09:00:51.161Z,99399.83
2022-10-23T09:03:21.966Z,99393.83
2022-10-23T09:06:17.557Z,99387.53
2022-10-23T09:09:09.215Z,99391.14
2022-10-23T09:12:36.851Z,99391.01
2022-10-23T09:15:35.238Z,99392.50
2022-10-23T09:18:15.725Z,99394.48
2022-10-23T09:20:50.533Z,99391.68
2022-10-23T09:23:23.473Z,99392.98
2022-10-23T09:25:57.278Z,99397.17
2022-10-23T09:28:32.659Z,99395.39
2022-10-23T09:31:12.553Z,99396.01
2022-10-23T09:33:54.465Z,99395.70
2022-10-23T09:36:26.657Z,99395.09
2022-10-23T09:39:02.566Z,99394.15
2022-10-23T09:41:40.384Z,99399.39
2022-10-23T09:44:10.906Z,99400.11
2022-10-23T09:46:46.932Z,99403.46
2022-10-23T09:49:23.700Z,99407.89
2022-10-23T09:52:02.035Z,99407.98
2022-10-23T09:54:50.938Z,99407.11
2022-10-23T09:57:23.170Z,99402.56
2022-10-23T09:59:57.337Z,99401.74
2022-10-23T10:02:32.222Z,99403.23
2022-10-23T10:05:24.516Z,99400.12
2022-10-23T10:08:07.278Z,99399.40
2022-10-23T10:10:44.358Z,99391.64
2022-10-23T10:13:34.820Z,99387.16
2022-10-23T10:16:46.395Z,99389.19
2022-10-23T10:19:24.320Z,99385.34
2022-10-23T10:22:29.390Z,99380.60
2022-10-23T10:25:15.678Z,99375.35
2022-10-23T10:28:09.666Z,99375.96
2022-10-23T10:31:01.848Z,99372.73
2022-10-23T10:34:33.383Z,99367.66
2022-10-23T10:37:49.366Z,99367.04
2022-10-23T10:40:32.075Z,99365.44
2022-10-23T10:43:36.911Z,99357.66
2022-10-23T10:46:30.478Z,99354.80
2022-10-23T10:49:09.665Z,99348.98
2022-10-23T10:51:49.483Z,99341.63
2022-10-23T10:54:30.257Z,99345.34
2022-10-23T10:57:05.840Z,99350.09
2022-10-23T10:59:44.526Z,99356.12
2022-10-23T11:02:21.698Z,99352.40
2022-10-23T11:05:14.857Z,99354.30
2022-10-23T11:07:56.462Z,99350.66
2022-10-23T11:10:25.364Z,99347.89
2022-10-23T11:12:54.975Z,99350.23
2022-10-23T11:15:41.017Z,99347.00
2022-10-23T11:18:25.007Z,99340.41
2022-10-23T11:21:13.471Z,99328.33
2022-10-23T11:23:46.264Z,99323.19
2022-10-23T11:26:53.567Z,99314.48
2022-10-23T11:29:34.063Z,99311.16
2022-10-23T11:32:21.569Z,99306.73
2022-10-23T11:34:56.614Z,99312.10
2022-10-23T11:37:27.347Z,99318.88
2022-10-23T11:40:09.820Z,99315.81
2022-10-23T11:42:44.259Z,99307.96
2022-10-23T11:45:35.524Z,99302.85
2022-10-23T11:48:21.207Z,99295.20
2022-10-23T11:50:58.172Z,99281.76
2022-10-23T11:53:33.687Z,99276.19
2022-10-23T11:56:14.996Z,99268.31
2022-10-23T11:58:57.289Z,99263.87
2022-10-23T12:01:42.090Z,99259.23
2022-10-23T12:04:15.436Z,99257.04
2022-10-23T12:07:37.822Z,99258.80
2022-10-23T12:10:20.011Z,99260.02
2022-10-23T12:13:04.007Z,99255.83
2022-10-23T12:15:36.775Z,99248.92
2022-10-23T12:18:27.884Z,99244.15
2022-10-23T12:21:05.418Z,99239.14
2022-10-23T12:23:47.372Z,99235.77
2022-10-23T12:26:20.290Z,99235.59
2022-10-23T12:29:16.054Z,99236.70
2022-10-23T12:32:14.628Z,99232.75
2022-10-23T12:35:35.201Z,99231.77
2022-10-23T12:38:16.316Z,99225.45
2022-10-23T12:41:17.311Z,99219.56
2022-10-23T12:44:00.127Z,99215.66
2022-10-23T12:46:34.924Z,99215.94
2022-10-23T12:49:16.629Z,99214.43
2022-10-23T12:51:54.311Z,99210.57
2022-10-23T12:54:25.004Z,99205.89
2022-10-23T12:56:55.510Z,99198.83
2022-10-23T12:59:39.566Z,99200.02
2022-10-23T13:02:35.742Z,99198.96
2022-10-23T13:05:13.829Z,99198.98
2022-10-23T13:07:51.132Z,99195.10
2022-10-23T13:10:26.600Z,99193.59
2022-10-23T13:13:07.561Z,99192.38
2022-10-23T13:15:46.302Z,99188.20
2022-10-23T13:18:18.534Z,99184.19
2022-10-23T13:20:55.114Z,99184.95
2022-10-23T13:23:50.748Z,99182.01
2022-10-23T13:26:31.432Z,99180.67
2022-10-23T13:29:07.340Z,99184.10
2022-10-23T13:31:45.340Z,99184.62
2022-10-23T13:34:25.136Z,99187.83
2022-10-23T13:37:27.094Z,99189.48
2022-10-23T13:40:20.813Z,99188.69
2022-10-23T13:42:50.832Z,99191.45
2022-10-23T13:45:22.862Z,99189.46
2022-10-23T13:47:52.436Z,99188.79
2022-10-23T13:50:21.740Z,99184.70
2022-10-23T13:52:53.114Z,99178.61
2022-10-23T13:55:27.345Z,99178.89
2022-10-23T13:57:57.834Z,99174.07
2022-10-23T14:00:27.739Z,99170.99
2022-10-23T14:02:56.728Z,99167.98
2022-10-23T14:05:26.461Z,99165.84
2022-10-23T14:07:56.677Z,99165.23
2022-10-23T14:10:28.184Z,99162.86
2022-10-23T14:12:58.245Z,99158.42
2022-10-23T14:15:28.646Z,99156.90
2022-10-23T14:18:04.625Z,99154.20
2022-10-23T14:20:39.043Z,99154.52
2022-10-23T14:23:08.513Z,99154.80
2022-10-23T14:25:38.831Z,99154.85
2022-10-23T14:28:07.885Z,99151.48
2022-10-23T14:30:37.966Z,99150.40
2022-10-23T14:33:07.575Z,99149.92
2022-10-23T14:35:42.729Z,99140.10
2022-10-23T14:38:13.003Z,99136.95
2022-10-23T14:40:42.319Z,99137.02
2022-10-23T14:43:11.978Z,99137.10
2022-10-23T14:45:41.704Z,99136.69
2022-10-23T14:48:11.932Z,99136.52
2022-10-23T14:50:46.115Z,99135.53
2022-10-23T14:53:16.535Z,99131.02
2022-10-23T14:55:45.430Z,99129.29
2022-10-23T14:58:15.818Z,99127.56
2022-10-23T15:00:45.461Z,99128.59
2022-10-23T15:03:16.047Z,99128.66
2022-10-23T15:05:47.024Z,99127.55
2022-10-23T15:08:16.735Z,99130.72
2022-10-23T15:10:47.058Z,99134.48
2022-10-23T15:13:17.261Z,99133.70
2022-10-23T15:15:46.500Z,99131.67
2022-10-23T15:18:20.087Z,99129.13
2022-10-23T15:20:55.170Z,99127.65
2022-10-23T15:23:25.508Z,99127.91
2022-10-23T15:25:59.595Z,99136.06
2022-10-23T15:28:30.152Z,99139.25
2022-10-23T15:31:07.111Z,99142.21
2022-10-23T15:33:44.141Z,99146.70
2022-10-23T15:36:15.311Z,99144.75
2022-10-23T15:38:46.411Z,99145.61
2022-10-23T15:41:18.425Z,99150.77
2022-10-23T15:43:47.631Z,99151.35
2022-10-23T15:46:16.265Z,99151.97
2022-10-23T15:48:44.309Z,99148.23
2022-10-23T15:51:12.355Z,99144.39
2022-10-23T15:53:43.688Z,99145.33
2022-10-23T15:56:14.174Z,99150.73
2022-10-23T15:58:43.578Z,99152.73
2022-10-23T16:01:13.932Z,99155.52
2022-10-23T16:03:43.495Z,99155.27
2022-10-23T16:06:15.392Z,99153.77
2022-10-23T16:08:47.692Z,99151.64
2022-10-23T16:11:20.539Z,99152.02
2022-10-23T16:13:50.539Z,99146.13
2022-10-23T16:16:20.231Z,99142.75
2022-10-23T16:18:50.530Z,99136.34
2022-10-23T16:21:27.297Z,99129.83
2022-10-23T16:24:00.333Z,99124.10
2022-10-23T16:26:32.354Z,99122.89
2022-10-23T16:29:06.897Z,99124.40
2022-10-23T16:31:36.521Z,99122.61
2022-10-23T16:34:07.103Z,99123.98
2022-10-23T16:36:42.472Z,99128.50
2022-10-23T16:39:32.150Z,99130.81
2022-10-23T16:42:37.303Z,99127.10
2022-10-23T16:45:25.047Z,99127.98
2022-10-23T16:47:53.960Z,99125.39
2022-10-23T16:50:23.963Z,99124.52
2022-10-23T16:52:55.793Z,99120.70
2022-10-23T16:55:25.743Z,99119.34
2022-10-23T16:57:55.624Z,99118.81
2022-10-23T17:00:24.852Z,99117.20
2022-10-23T17:02:57.171Z,99124.70
2022-10-23T17:05:30.196Z,99129.47
2022-10-23T17:07:59.198Z,99135.91
2022-10-23T17:10:30.349Z,99141.02
2022-10-23T17:13:03.366Z,99132.58
2022-10-23T17:15:35.857Z,99130.72
2022-10-23T17:18:07.848Z,99132.07
2022-10-23T17:20:38.541Z,99133.52
2022-10-23T17:23:09.198Z,99134.98
2022-10-23T17:25:41.591Z,99136.77
2022-10-23T17:28:14.311Z,99131.14
2022-10-23T17:30:45.948Z,99123.15
2022-10-23T17:33:17.001Z,99113.98
2022-10-23T17:35:49.130Z,99104.42
2022-10-23T17:38:19.445Z,99097.84
2022-10-23T17:40:53.846Z,99101.64
2022-10-23T17:43:23.325Z,99100.34
2022-10-23T17:45:52.327Z,99098.10
2022-10-23T17:48:23.913Z,99094.17
2022-10-23T17:51:05.301Z,99093.12
2022-10-23T17:53:37.419Z,99088.35
2022-10-23T17:56:09.385Z,99084.48
2022-10-23T17:58:41.777Z,99081.30
2022-10-23T18:01:15.390Z,99081.33
2022-10-23T18:03:48.844Z,99083.83
2022-10-23T18:06:32.768Z,99079.31
2022-10-23T18:09:06.869Z,99080.34
2022-10-23T18:11:45.415Z,99079.14
2022-10-23T18:14:20.818Z,99075.05
2022-10-23T18:16:56.337Z,99079.16
2022-10-23T18:19:33.344Z,99080.83
2022-10-23T18:22:04.168Z,99083.94
2022-10-23T18:24:37.995Z,99073.66
2022-10-23T18:27:08.588Z,99063.67
2022-10-23T18:29:38.678Z,99059.05
2022-10-23T18:32:12.701Z,99055.43
2022-10-23T18:34:42.094Z,99055.60
2022-10-23T18:37:12.770Z,99057.54
2022-10-23T18:39:42.258Z,99055.75
2022-10-23T18:42:13.578Z,99048.80
2022-10-23T18:44:50.270Z,99046.77
2022-10-23T18:47:19.390Z,99041.85
2022-10-23T18:49:49.902Z,99040.07
2022-10-23T18:52:22.044Z,99037.67
2022-10-23T18:54:51.491Z,99024.60
2022-10-23T18:57:22.557Z,99020.48
2022-10-23T18:59:59.649Z,99022.20
2022-10-23T19:02:30.994Z,99025.22
2022-10-23T19:05:02.349Z,99026.14
2022-10-23T19:07:33.790Z,99030.96
2022-10-23T19:10:04.182Z,99028.34
2022-10-23T19:12:34.750Z,99029.52
2022-10-23T19:15:10.564Z,99024.50
2022-10-23T19:17:41.387Z,99019.16
2022-10-23T19:20:16.396Z,99020.55
2022-10-23T19:22:49.655Z,99018.24
2022-10-23T19:25:45.774Z,99015.39
2022-10-23T19:28:14.939Z,99009.18
2022-10-23T19:30:44.413Z,99009.13
2022-10-23T19:33:13.961Z,99008.31
2022-10-23T19:35:45.636Z,99005.77
2022-10-23T19:38:17.143Z,99001.26
2022-10-23T19:40:49.115Z,98992.31
2022-10-23T19:43:17.808Z,98993.09
2022-10-23T19:45:46.901Z,98994.85
2022-10-23T19:48:17.258Z,98992.91
2022-10-23T19:50:46.705Z,98997.33
2022-10-23T19:53:19.700Z,98994.48
2022-10-23T19:55:54.251Z,98990.05
2022-10-23T19:58:29.480Z,98977.88
2022-10-23T20:00:57.958Z,98971.03
2022-10-23T20:03:29.771Z,98970.55
2022-10-23T20:06:01.332Z,98967.81
2022-10-23T20:08:34.951Z,98966.33
2022-10-23T20:11:12.856Z,98968.85
2022-10-23T20:13:42.512Z,98968.27
2022-10-23T20:16:22.991Z,98969.14
2022-10-23T20:18:54.690Z,98966.05
2022-10-23T20:21:27.073Z,98961.58
2022-10-23T20:24:00.788Z,98950.41
2022-10-23T20:26:33.667Z,98937.84
2022-10-23T20:29:05.184Z,98934.63
2022-10-23T20:31:37.028Z,98935.70
2022-10-23T20:34:08.945Z,98931.12
2022-10-23T20:36:46.375Z,98934.70
2022-10-23T20:39:30.112Z,98937.66
2022-10-23T20:42:01.648Z,98939.08
2022-10-23T20:44:32.619Z,98935.84
2022-10-23T20:47:01.815Z,98935.16
2022-10-23T20:49:33.652Z,98937.38
2022-10-23T20:52:04.577Z,98933.52
2022-10-23T20:54:37.432Z,98937.71
2022-10-23T20:57:09.673Z,98945.96
2022-10-23T20:59:42.743Z,98949.98
2022-10-23T21:02:13.267Z,98942.54
2022-10-23T21:04:46.361Z,98933.65
2022-10-23T21:07:19.321Z,98920.09
2022-10-23T21:09:52.038Z,98918.42
2022-10-23T21:12:19.988Z,98918.89
2022-10-23T21:14:55.157Z,98915.62
2022-10-23T21:17:24.118Z,98912.35
2022-10-23T21:19:52.973Z,98907.84
2022-10-23T21:22:21.540Z,98899.58
2022-10-23T21:24:53.854Z,98894.91
2022-10-23T21:27:24.130Z,98898.55
2022-10-23T21:29:54.057Z,98900.33
2022-10-23T21:32:24.165Z,98887.27
2022-10-23T21:34:57.599Z,98878.21
2022-10-23T21:37:27.164Z,98872.70
2022-10-23T21:40:00.211Z,98867.46
2022-10-23T21:42:31.400Z,98870.70
2022-10-23T21:45:00.468Z,98875.03
2022-10-23T21:47:31.320Z,98871.06
2022-10-23T21:50:01.970Z,98876.46
2022-10-23T21:52:31.419Z,98872.36
2022-10-23T21:55:03.559Z,98869.77
2022-10-23T21:57:35.624Z,98865.77
2022-10-23T22:00:07.323Z,98859.92
2022-10-23T22:02:45.098Z,98853.18
2022-10-23T22:05:18.517Z,98843.65
2022-10-23T22:07:48.791Z,98836.96
2022-10-23T22:10:18.532Z,98837.54
2022-10-23T22:12:47.666Z,98837.50
2022-10-23T22:15:21.599Z,98834.16
2022-10-23T22:17:54.004Z,98830.43
2022-10-23T22:20:24.620Z,98834.83
2022-10-23T22:22:57.227Z,98842.00
2022-10-23T22:25:26.955Z,98845.40
2022-10-23T22:27:56.610Z,98847.60
2022-10-23T22:30:27.240Z,98844.75
2022-10-23T22:32:58.926Z,98842.73
2022-10-23T22:35:30.779Z,98841.43
2022-10-23T22:38:00.625Z,98838.77
2022-10-23T22:40:28.473Z,98836.42
2022-10-23T22:42:59.547Z,98838.23
2022-10-23T22:45:29.055Z,98842.75
2022-10-23T22:47:59.908Z,98838.79
2022-10-23T22:50:28.332Z,98844.50
2022-10-23T22:52:59.794Z,98852.05
2022-10-23T22:55:30.054Z,98858.39
2022-10-23T22:57:57.784Z,98855.25
2022-10-23T23:00:26.256Z,98853.46
2022-10-23T23:02:55.577Z,98851.95
2022-10-23T23:05:25.736Z,98854.23
2022-10-23T23:07:54.664Z,98854.08
2022-10-23T23:10:23.426Z,98851.63
2022-10-23T23:12:56.127Z,98856.73
2022-10-23T23:15:25.776Z,98857.29
2022-10-23T23:17:59.308Z,98856.44
2022-10-23T23:20:29.976Z,98856.44
2022-10-23T23:22:57.815Z,98863.32
2022-10-23T23:25:26.263Z,98862.84
2022-10-23T23:27:54.547Z,98861.72
2022-10-23T23:30:23.280Z,98862.89
2022-10-23T23:32:52.734Z,98870.09
2022-10-23T23:35:20.972Z,98878.23
2022-10-23T23:37:48.733Z,98890.69
2022-10-23T23:40:17.046Z,98905.52
2022-10-23T23:42:47.172Z,98914.36
2022-10-23T23:45:15.396Z,98918.16
2022-10-23T23:47:51.481Z,98922.59
2022-10-23T23:50:28.314Z,98929.23
2022-10-23T23:52:57.164Z,98934.31
2022-10-23T23:55:26.225Z,98929.88
2022-10-23T23:57:55.470Z,98940.07
